Terminal Aerodrome Forecast
Issued by NWS

Home | Current Version | Previous Version | Text Only | Print | Product List | Glossary On
Versions: 1 2 3 4 5 6 7 8 9 10 11 12 13 14 15 16 17
000
FTUS45 KSLC 210250 AAC
TAFLGU
TAF AMD
KLGU 210250Z 2103/2124 14007KT 6SM -RA BR SCT025 OVC040
      TEMPO 2103/2105 5SM RA BKN025
     FM210500 18014G21KT P6SM SCT040 BKN070
     FM212000 21016G23KT P6SM VCSH SCT030 BKN060
     FM212300 30015G22KT 4SM RA SCT015 BKN030=

USA.gov is the U.S. government's official web portal to all federal, state and local government web resources and services.